Time;durP1;ratioP1;P1;durP2;ratioP2;P2;SDS_P1;SDS_P2;PMS_P1;PMS_P2;Temp;Humidity;BMP_temperature;BMP_pressure;BME280_temperature;BME280_humidity;BME280_pressure;Samples;Min_cycle;Max_cycle;Signal;HPM_P1;HPM_P2
2022/12/23 00:00:26;;;;;;;33.45;14.25;;;;;;;9.08;100.00;100172.50;4992571;28;20064;-59
2022/12/23 00:02:51;;;;;;;35.28;14.32;;;;;;;9.08;100.00;100175.13;4992505;28;20060;-60
2022/12/23 00:05:17;;;;;;;45.17;15.25;;;;;;;9.10;100.00;100181.16;4974908;28;20124;-59
2022/12/23 00:07:43;;;;;;;37.10;13.32;;;;;;;8.61;100.00;100116.47;4990823;28;20093;-59
2022/12/23 00:10:09;;;;;;;37.55;14.05;;;;;;;8.89;100.00;100156.56;4992238;28;20061;-60
2022/12/23 00:15:19;;;;;;;39.42;13.35;;;;;;;9.15;100.00;100197.59;4997280;28;20077;-58
2022/12/23 00:17:44;;;;;;;42.35;14.82;;;;;;;9.12;100.00;100193.31;4996248;28;21776;-58
2022/12/23 00:20:12;;;;;;;30.50;13.93;;;;;;;8.80;100.00;100138.50;5003325;28;20038;-59
2022/12/23 00:25:39;;;;;;;38.63;14.95;;;;;;;8.97;100.00;100186.00;4996884;28;20065;-59
2022/12/23 00:28:13;;;;;;;46.00;16.02;;;;;;;9.03;100.00;100210.25;4987914;28;20405;-59
2022/12/23 00:30:52;;;;;;;36.15;14.68;;;;;;;8.55;100.00;100128.06;5004755;28;20485;-60
2022/12/23 00:33:42;;;;;;;43.22;15.88;;;;;;;9.04;100.00;100195.38;5004300;28;20473;-58
2022/12/23 00:36:23;;;;;;;48.88;16.90;;;;;;;8.68;100.00;100139.81;5002613;28;20129;-58
2022/12/23 00:44:17;;;;;;;51.97;16.73;;;;;;;8.90;100.00;100189.78;4988621;28;20448;-59
2022/12/23 00:46:42;;;;;;;58.28;18.13;;;;;;;9.07;100.00;100210.16;5013322;28;20041;-58
2022/12/23 00:51:55;;;;;;;47.30;17.83;;;;;;;8.99;100.00;100192.03;5010653;28;20397;-59
2022/12/23 00:54:20;;;;;;;55.70;18.88;;;;;;;9.05;100.00;100216.31;5017744;28;20038;-59
2022/12/23 00:56:46;;;;;;;64.93;19.70;;;;;;;9.02;100.00;100212.94;5001806;28;20042;-59
2022/12/23 00:59:11;;;;;;;60.42;20.63;;;;;;;9.00;100.00;100230.50;5012093;28;20060;-59
2022/12/23 01:07:05;;;;;;;60.55;20.83;;;;;;;8.78;100.00;100187.56;4984530;28;20509;-58
2022/12/23 01:09:31;;;;;;;52.50;19.35;;;;;;;8.99;100.00;100239.28;4998152;28;20046;-58
2022/12/23 01:11:56;;;;;;;53.10;20.05;;;;;;;8.97;100.00;100235.88;4981756;28;20073;-58
2022/12/23 01:14:21;;;;;;;47.75;18.25;;;;;;;8.94;100.00;100225.47;4997154;28;20034;-58
2022/12/23 01:16:47;;;;;;;37.67;16.27;;;;;;;8.96;100.00;100228.94;4990825;28;20053;-58
2022/12/23 01:19:12;;;;;;;36.38;14.55;;;;;;;8.70;100.00;100185.19;4980519;28;20033;-60
2022/12/23 01:21:38;;;;;;;35.30;14.32;;;;;;;8.68;100.00;100179.16;4998273;28;20046;-60
2022/12/23 01:24:03;;;;;;;30.80;13.30;;;;;;;8.67;100.00;100176.59;4991069;28;20065;-60
2022/12/23 01:26:28;;;;;;;31.13;12.05;;;;;;;8.52;100.00;100170.13;4995111;28;20058;-59
2022/12/23 01:28:55;;;;;;;25.08;11.75;;;;;;;8.91;100.00;100243.94;4994463;28;20532;-60
2022/12/23 01:31:21;;;;;;;21.13;10.38;;;;;;;8.63;100.00;100196.84;4969820;28;20116;-59
2022/12/23 01:33:47;;;;;;;22.27;9.77;;;;;;;8.52;100.00;100182.38;4962886;28;20458;-59
2022/12/23 01:36:12;;;;;;;19.15;9.27;;;;;;;8.53;100.00;100197.19;4978430;28;20034;-59
2022/12/23 01:38:37;;;;;;;18.88;10.45;;;;;;;8.47;100.00;100198.25;4994622;28;20452;-59
2022/12/23 01:41:03;;;;;;;23.88;10.55;;;;;;;8.62;100.00;100239.72;4994166;28;20034;-59
2022/12/23 01:43:49;;;;;;;27.30;11.88;;;;;;;8.45;100.00;100214.06;4994674;28;20034;-59
2022/12/23 01:46:15;;;;;;;23.42;11.80;;;;;;;8.36;100.00;100197.75;4993257;28;20040;-59
2022/12/23 01:48:43;;;;;;;25.33;11.95;;;;;;;8.54;100.00;100239.13;4978849;28;20121;-59
2022/12/23 01:51:18;;;;;;;27.20;13.70;;;;;;;8.74;100.00;100267.31;4990594;28;20092;-59
2022/12/23 01:53:51;;;;;;;34.85;17.02;;;;;;;8.76;100.00;100275.97;4994833;28;20042;-59
2022/12/23 01:56:33;;;;;;;29.92;18.65;;;;;;;8.82;100.00;100292.38;4994827;28;20478;-61
2022/12/23 01:59:05;;;;;;;38.50;21.13;;;;;;;8.30;100.00;100201.44;4994602;28;20057;-59
2022/12/23 02:04:18;;;;;;;44.42;25.02;;;;;;;8.33;100.00;100224.94;4975164;28;20121;-59
2022/12/23 02:09:34;;;;;;;47.60;27.67;;;;;;;8.76;100.00;100310.09;4973904;28;20042;-58
2022/12/23 02:12:24;;;;;;;47.70;26.87;;;;;;;8.76;100.00;100325.81;4973782;28;20043;-59
2022/12/23 02:18:52;;;;;;;57.10;30.95;;;;;;;8.71;100.00;100325.13;4960622;28;20050;-59
2022/12/23 02:21:22;;;;;;;55.95;30.88;;;;;;;8.71;100.00;100322.50;4974385;28;20105;-60
2022/12/23 02:23:57;;;;;;;54.03;30.88;;;;;;;8.65;100.00;100323.56;4973639;28;20042;-60
2022/12/23 02:26:50;;;;;;;48.78;28.98;;;;;;;8.67;100.00;100326.16;4974795;28;20141;-61
2022/12/23 02:29:49;;;;;;;55.90;30.90;;;;;;;8.64;100.00;100332.34;4974540;28;20026;-58
2022/12/23 02:32:36;;;;;;;49.22;27.67;;;;;;;8.63;100.00;100340.28;4974541;28;20117;-62
2022/12/23 02:35:07;;;;;;;45.60;25.23;;;;;;;8.42;100.00;100326.94;4974915;28;20081;-59
2022/12/23 02:37:51;;;;;;;48.00;26.10;;;;;;;8.48;100.00;100341.63;4974461;28;20100;-61
2022/12/23 02:40:25;;;;;;;49.33;27.33;;;;;;;8.58;100.00;100357.94;4974880;28;20449;-61
2022/12/23 02:43:12;;;;;;;58.08;27.60;;;;;;;8.58;100.00;100358.75;4974762;28;20031;-58
2022/12/23 02:45:48;;;;;;;50.65;26.30;;;;;;;8.58;100.00;100364.00;4993450;28;20042;-59
2022/12/23 02:48:31;;;;;;;51.22;26.92;;;;;;;8.56;100.00;100365.84;4976620;28;20045;-61
2022/12/23 02:50:57;;;;;;;55.28;27.38;;;;;;;8.02;100.00;100258.28;4975902;28;20044;-60
2022/12/23 02:53:40;;;;;;;43.67;24.38;;;;;;;8.56;100.00;100359.72;4976284;28;20065;-59
2022/12/23 02:56:07;;;;;;;41.90;22.80;;;;;;;8.14;100.00;100286.72;4976265;28;20393;-60
2022/12/23 02:58:37;;;;;;;40.65;22.13;;;;;;;8.04;100.00;100277.41;4976033;28;20030;-60
2022/12/23 03:01:04;;;;;;;33.58;20.20;;;;;;;8.48;100.00;100368.72;4987770;28;20050;-58
2022/12/23 03:03:30;;;;;;;28.83;17.58;;;;;;;7.99;100.00;100268.00;4993781;28;20027;-59
2022/12/23 03:05:55;;;;;;;30.38;18.05;;;;;;;8.35;100.00;100332.41;4992870;28;20046;-61
2022/12/23 03:08:34;;;;;;;52.92;19.20;;;;;;;8.39;100.00;100344.53;4982088;28;20046;-60
2022/12/23 03:11:05;;;;;;;40.97;16.27;;;;;;;8.31;100.00;100334.28;4976676;28;20062;-61
2022/12/23 03:14:16;;;;;;;36.63;16.35;;;;;;;8.37;100.00;100346.34;4975906;28;20030;-60
2022/12/23 03:16:59;;;;;;;32.90;17.38;;;;;;;8.35;100.00;100361.25;4976914;28;20117;-63
2022/12/23 03:19:31;;;;;;;43.03;16.90;;;;;;;8.08;100.00;100307.88;4983640;28;20068;-60
2022/12/23 03:22:08;;;;;;;27.25;15.20;;;;;;;8.22;100.00;100339.78;4992910;28;20693;-61
2022/12/23 03:24:52;;;;;;;34.67;16.50;;;;;;;8.30;100.00;100352.66;4990831;28;20447;-61
2022/12/23 03:27:45;;;;;;;43.30;18.33;;;;;;;8.31;100.00;100354.41;4992499;28;20054;-59
2022/12/23 03:30:16;;;;;;;35.75;19.45;;;;;;;8.31;100.00;100352.66;4981825;28;20054;-60
2022/12/23 03:32:44;;;;;;;38.75;19.80;;;;;;;8.07;100.00;100314.03;4992553;28;20026;-58
2022/12/23 03:35:11;;;;;;;41.55;20.30;;;;;;;8.36;100.00;100352.47;4992473;28;20551;-61
2022/12/23 03:37:38;;;;;;;34.78;19.15;;;;;;;8.35;100.00;100367.34;4965008;28;20054;-61
2022/12/23 03:40:09;;;;;;;39.47;19.88;;;;;;;7.78;100.00;100275.59;4974920;28;20145;-61
2022/12/23 03:42:37;;;;;;;35.90;18.83;;;;;;;8.08;100.00;100315.75;4975272;28;20049;-59
2022/12/23 03:45:08;;;;;;;38.08;18.95;;;;;;;8.06;100.00;100309.69;4975394;28;20034;-61
2022/12/23 03:47:40;;;;;;;36.00;18.55;;;;;;;8.26;100.00;100351.88;4976382;28;20413;-60
2022/12/23 03:50:10;;;;;;;41.50;19.40;;;;;;;7.88;100.00;100292.75;4990307;28;20046;-60
2022/12/23 03:52:39;;;;;;;33.03;18.02;;;;;;;8.25;100.00;100352.78;4984615;28;20026;-61
2022/12/23 03:55:08;;;;;;;31.63;17.25;;;;;;;8.24;100.00;100353.69;4974867;28;20034;-60
2022/12/23 03:58:07;;;;;;;38.40;19.95;;;;;;;8.24;100.00;100358.94;4976315;28;20125;-62
2022/12/23 04:00:35;;;;;;;35.10;18.65;;;;;;;8.16;100.00;100360.06;4982986;28;20078;-60
2022/12/23 04:03:12;;;;;;;34.53;19.00;;;;;;;8.33;100.00;100382.28;4990787;28;20049;-62
2022/12/23 04:05:40;;;;;;;38.78;19.88;;;;;;;8.17;100.00;100380.16;4990817;28;20077;-62
2022/12/23 04:08:16;;;;;;;32.95;19.42;;;;;;;8.26;100.00;100393.81;4991750;28;20640;-60
2022/12/23 04:10:41;;;;;;;41.13;20.27;;;;;;;8.24;100.00;100379.03;4990500;28;20046;-62
2022/12/23 04:13:07;;;;;;;36.25;21.25;;;;;;;7.84;100.00;100319.09;4986639;28;20049;-59
2022/12/23 04:15:32;;;;;;;32.13;20.63;;;;;;;7.84;100.00;100316.47;4991966;28;20026;-60
2022/12/23 04:17:58;;;;;;;36.47;21.52;;;;;;;8.24;100.00;100387.78;4962795;28;20081;-58
2022/12/23 04:20:24;;;;;;;37.10;21.50;;;;;;;7.83;100.00;100309.50;4991972;28;20386;-59
2022/12/23 04:22:49;;;;;;;36.65;21.23;;;;;;;8.37;100.00;100388.31;4991840;28;20407;-61
2022/12/23 04:25:16;;;;;;;33.35;21.00;;;;;;;8.03;100.00;100349.09;4991876;28;20027;-61
2022/12/23 04:27:41;;;;;;;45.83;24.38;;;;;;;8.31;100.00;100386.72;4992162;28;20027;-60
2022/12/23 04:30:08;;;;;;;45.58;22.90;;;;;;;8.15;100.00;100361.81;4991591;28;20085;-61
2022/12/23 04:32:34;;;;;;;47.78;22.83;;;;;;;7.90;100.00;100318.91;4991940;28;20477;-61
2022/12/23 04:34:59;;;;;;;44.75;21.23;;;;;;;8.33;100.00;100379.66;4991901;28;20038;-61
2022/12/23 04:37:25;;;;;;;53.42;22.92;;;;;;;8.29;100.00;100383.28;4991623;28;20039;-61
2022/12/23 04:39:50;;;;;;;57.47;23.15;;;;;;;7.85;100.00;100303.31;4992002;28;20070;-63
2022/12/23 04:42:15;;;;;;;39.60;21.00;;;;;;;7.88;100.00;100310.25;4992035;28;20524;-58
2022/12/23 04:44:41;;;;;;;50.30;22.55;;;;;;;8.28;100.00;100373.72;4991767;28;20401;-62
2022/12/23 04:47:06;;;;;;;39.38;21.42;;;;;;;8.34;100.00;100368.28;4990965;28;20385;-62
2022/12/23 04:49:31;;;;;;;48.20;24.33;;;;;;;8.31;100.00;100373.63;4991914;28;20490;-62
2022/12/23 04:51:57;;;;;;;50.60;23.27;;;;;;;8.30;100.00;100371.88;4991965;28;20084;-59
2022/12/23 04:54:22;;;;;;;44.15;23.48;;;;;;;8.30;100.00;100373.66;4991855;28;20034;-59
2022/12/23 04:56:48;;;;;;;50.63;22.80;;;;;;;8.27;100.00;100379.84;4991878;28;20121;-60
2022/12/23 04:59:14;;;;;;;50.78;24.40;;;;;;;8.21;100.00;100371.28;4992062;28;20118;-59
2022/12/23 05:01:41;;;;;;;51.22;23.63;;;;;;;8.21;100.00;100373.88;4976525;28;20053;-60
2022/12/23 05:04:07;;;;;;;53.63;24.63;;;;;;;8.15;100.00;100361.81;4995976;28;20112;-60
2022/12/23 05:06:32;;;;;;;55.13;24.63;;;;;;;8.25;100.00;100372.91;4995727;28;20038;-60
2022/12/23 05:08:58;;;;;;;56.38;25.27;;;;;;;8.25;100.00;100380.78;4995933;28;20686;-60
2022/12/23 05:11:24;;;;;;;54.17;24.13;;;;;;;8.15;100.00;100372.31;4995426;28;20034;-60
2022/12/23 05:13:50;;;;;;;55.40;26.15;;;;;;;8.26;100.00;100396.44;4978368;28;20378;-58
2022/12/23 05:16:16;;;;;;;57.35;24.40;;;;;;;8.27;100.00;100402.56;4995281;28;20034;-60
2022/12/23 05:18:41;;;;;;;57.58;26.10;;;;;;;8.25;100.00;100407.84;4996162;28;20057;-61
2022/12/23 05:21:07;;;;;;;53.72;24.42;;;;;;;8.24;100.00;100397.41;4995445;28;20530;-59
2022/12/23 05:23:32;;;;;;;60.90;24.17;;;;;;;7.47;100.00;100272.16;4994612;28;20044;-61
2022/12/23 05:25:57;;;;;;;61.95;24.42;;;;;;;8.20;100.00;100399.25;4977170;28;20065;-60
2022/12/23 05:28:23;;;;;;;54.35;23.92;;;;;;;7.78;100.00;100351.56;4994915;28;20034;-59
2022/12/23 05:30:48;;;;;;;56.92;24.85;;;;;;;7.46;100.00;100291.38;4994660;28;20048;-61
2022/12/23 05:33:14;;;;;;;71.40;25.30;;;;;;;8.01;100.00;100389.34;4983101;28;20038;-59
2022/12/23 05:35:39;;;;;;;59.17;24.92;;;;;;;7.76;100.00;100344.66;4977559;28;20034;-59
2022/12/23 05:38:05;;;;;;;57.70;23.90;;;;;;;8.11;100.00;100399.53;4994614;28;20103;-60
2022/12/23 05:40:30;;;;;;;63.22;26.17;;;;;;;8.23;100.00;100408.81;4994597;28;20034;-61
2022/12/23 05:42:55;;;;;;;64.93;26.52;;;;;;;8.21;100.00;100415.84;4994210;28;20524;-60
2022/12/23 05:45:21;;;;;;;67.10;28.65;;;;;;;7.68;100.00;100323.03;4994751;28;20049;-59
2022/12/23 05:47:46;;;;;;;61.70;26.88;;;;;;;8.19;100.00;100410.66;4994130;28;20060;-60
2022/12/23 05:50:12;;;;;;;70.43;27.35;;;;;;;7.93;100.00;100352.91;4994342;28;20038;-60
2022/12/23 05:52:37;;;;;;;78.75;29.02;;;;;;;8.11;100.00;100382.94;4994010;28;20039;-59
2022/12/23 05:55:03;;;;;;;74.53;28.27;;;;;;;7.76;100.00;100302.75;4993332;28;20045;-60
2022/12/23 05:57:30;;;;;;;74.72;28.02;;;;;;;8.15;100.00;100368.81;4991118;28;20161;-59
2022/12/23 05:59:56;;;;;;;105.50;31.52;;;;;;;8.22;100.00;100381.72;4993732;28;20068;-60
2022/12/23 06:02:21;;;;;;;83.45;27.60;;;;;;;8.21;100.00;100372.13;4993617;28;20431;-60
2022/12/23 06:04:46;;;;;;;82.97;28.77;;;;;;;8.20;100.00;100370.41;4994539;28;20057;-60
2022/12/23 06:07:12;;;;;;;113.22;30.80;;;;;;;8.20;100.00;100359.91;4994001;28;20117;-60
2022/12/23 06:09:37;;;;;;;76.32;29.08;;;;;;;8.20;100.00;100369.56;4961398;28;20500;-60
2022/12/23 06:12:03;;;;;;;104.18;29.42;;;;;;;8.19;100.00;100357.34;4993320;28;20053;-60
2022/12/23 06:14:28;;;;;;;83.07;28.90;;;;;;;7.99;100.00;100331.75;4993626;28;20057;-59
2022/12/23 06:16:53;;;;;;;82.25;28.27;;;;;;;7.78;100.00;100295.69;4994244;28;20394;-59
2022/12/23 06:19:18;;;;;;;87.93;28.23;;;;;;;8.17;100.00;100362.63;4992557;28;20489;-60
2022/12/23 06:21:44;;;;;;;70.35;26.48;;;;;;;8.25;100.00;100370.28;4994025;28;20081;-59
2022/12/23 06:24:10;;;;;;;71.55;27.00;;;;;;;7.93;100.00;100326.69;4993321;28;20401;-59
2022/12/23 06:26:35;;;;;;;74.60;25.90;;;;;;;8.28;100.00;100391.19;4983660;28;20046;-61
2022/12/23 06:29:01;;;;;;;76.05;25.67;;;;;;;8.29;100.00;100403.41;4977934;28;20045;-60
2022/12/23 06:31:26;;;;;;;74.72;25.48;;;;;;;7.89;100.00;100331.16;4993994;28;20042;-61
2022/12/23 06:33:52;;;;;;;95.97;28.23;;;;;;;8.31;100.00;100399.84;4994111;28;20065;-59
2022/12/23 06:36:17;;;;;;;98.93;27.67;;;;;;;8.26;100.00;100399.06;4993733;28;20041;-59
2022/12/23 06:38:42;;;;;;;87.95;26.52;;;;;;;8.29;100.00;100408.66;4993816;28;20129;-60
2022/12/23 06:41:08;;;;;;;93.25;27.73;;;;;;;8.30;100.00;100405.97;4993874;28;20097;-62
2022/12/23 06:43:34;;;;;;;99.88;28.02;;;;;;;8.31;100.00;100407.72;4993630;28;20122;-60
2022/12/23 06:45:59;;;;;;;88.55;27.10;;;;;;;8.30;100.00;100398.13;4993666;28;20066;-60
2022/12/23 06:48:25;;;;;;;81.88;26.50;;;;;;;8.29;100.00;100403.41;4993741;28;20038;-60
2022/12/23 06:50:50;;;;;;;109.25;27.65;;;;;;;8.26;100.00;100395.59;4993526;28;20034;-60
2022/12/23 06:53:16;;;;;;;94.28;27.77;;;;;;;8.28;100.00;100410.41;4993611;28;20049;-60
2022/12/23 06:55:41;;;;;;;106.20;28.77;;;;;;;8.25;100.00;100397.38;4993591;28;20038;-61
2022/12/23 06:58:07;;;;;;;89.28;26.52;;;;;;;7.89;100.00;100343.41;4993508;28;20045;-63
2022/12/23 07:00:33;;;;;;;86.57;26.52;;;;;;;8.28;100.00;100414.81;4993714;28;20034;-59
2022/12/23 07:02:58;;;;;;;105.65;29.42;;;;;;;8.27;100.00;100413.94;4993265;28;20053;-62
2022/12/23 07:05:24;;;;;;;99.85;27.52;;;;;;;8.23;100.00;100409.63;4976075;28;20034;-60
2022/12/23 07:07:49;;;;;;;95.97;27.83;;;;;;;8.26;100.00;100417.41;4993502;28;20093;-60
2022/12/23 07:10:15;;;;;;;95.93;28.42;;;;;;;8.20;100.00;100417.59;4993576;28;20030;-60
2022/12/23 07:12:41;;;;;;;93.97;28.85;;;;;;;8.14;100.00;100403.84;4993181;28;20057;-60
2022/12/23 07:15:07;;;;;;;102.47;30.13;;;;;;;8.23;100.00;100409.63;4993727;28;20096;-59
2022/12/23 07:17:32;;;;;;;99.43;29.98;;;;;;;8.24;100.00;100413.13;4975871;28;20121;-61
2022/12/23 07:19:58;;;;;;;102.05;30.80;;;;;;;7.86;100.00;100346.97;4993124;28;20065;-63
2022/12/23 07:22:23;;;;;;;107.75;31.30;;;;;;;8.23;100.00;100417.50;4992481;28;20801;-59
2022/12/23 07:24:49;;;;;;;113.45;31.50;;;;;;;8.24;100.00;100408.75;4990708;28;20070;-62
2022/12/23 07:27:14;;;;;;;118.75;32.58;;;;;;;8.21;100.00;100407.97;4991748;28;20054;-61
2022/12/23 07:29:40;;;;;;;119.20;33.28;;;;;;;8.23;100.00;100404.41;4992258;28;20066;-59
2022/12/23 07:32:05;;;;;;;109.53;32.90;;;;;;;8.11;100.00;100382.94;4992351;28;20034;-62
2022/12/23 07:34:30;;;;;;;106.15;32.70;;;;;;;8.20;100.00;100401.88;4992118;28;20030;-62
2022/12/23 07:36:56;;;;;;;130.98;34.58;;;;;;;8.25;100.00;100397.38;4990377;28;20038;-63
2022/12/23 07:39:21;;;;;;;128.75;34.17;;;;;;;8.27;100.00;100415.66;4992202;28;20112;-62
2022/12/23 07:41:46;;;;;;;123.38;35.17;;;;;;;8.10;100.00;100374.22;4992459;28;20453;-63
2022/12/23 07:44:12;;;;;;;126.43;37.17;;;;;;;7.87;100.00;100332.09;4992452;28;20568;-59
2022/12/23 07:46:37;;;;;;;107.15;36.00;;;;;;;7.75;100.00;100295.78;4991846;28;20510;-60
2022/12/23 07:49:03;;;;;;;117.88;37.53;;;;;;;7.90;100.00;100314.53;4991674;28;20044;-62
2022/12/23 07:51:28;;;;;;;144.82;39.00;;;;;;;7.85;100.00;100326.91;4973612;28;20652;-61
2022/12/23 07:53:53;;;;;;;117.65;36.70;;;;;;;8.21;100.00;100369.50;4991639;28;20173;-62
2022/12/23 07:56:19;;;;;;;119.07;36.95;;;;;;;7.93;100.00;100322.31;4988855;28;20042;-62
2022/12/23 07:58:51;;;;;;;113.07;37.85;;;;;;;8.31;100.00;100384.09;4991935;28;20049;-61
2022/12/23 08:01:17;;;;;;;133.63;37.38;;;;;;;8.24;100.00;100364.19;4986607;28;20104;-61
2022/12/23 08:03:43;;;;;;;127.07;35.65;;;;;;;8.23;100.00;100372.94;4988321;28;20458;-62
2022/12/23 08:06:11;;;;;;;123.95;36.28;;;;;;;8.32;100.00;100379.69;4991788;28;20101;-62
2022/12/23 08:08:38;;;;;;;105.88;37.22;;;;;;;8.24;100.00;100363.31;4991712;28;20113;-60
2022/12/23 08:11:05;;;;;;;133.38;40.20;;;;;;;8.29;100.00;100380.66;4988286;28;20073;-61
2022/12/23 08:13:32;;;;;;;118.95;37.85;;;;;;;8.35;100.00;100371.75;4991829;28;20042;-62
2022/12/23 08:15:59;;;;;;;128.75;38.83;;;;;;;8.37;100.00;100359.47;4991484;28;20478;-63
2022/12/23 08:18:25;;;;;;;134.85;40.22;;;;;;;7.96;100.00;100283.81;4977393;28;20047;-61
2022/12/23 08:20:59;;;;;;;150.68;39.85;;;;;;;8.37;100.00;100364.69;4991615;28;20069;-61
2022/12/23 08:23:25;;;;;;;177.65;43.40;;;;;;;8.39;100.00;100352.38;4974375;28;20034;-60
2022/12/23 08:26:11;;;;;;;145.68;41.50;;;;;;;8.20;100.00;100315.34;4991807;28;20055;-59
2022/12/23 08:28:38;;;;;;;150.20;40.75;;;;;;;8.43;100.00;100346.16;4974812;28;20041;-62
2022/12/23 08:31:12;;;;;;;116.10;39.30;;;;;;;8.38;100.00;100337.56;4974433;28;20446;-59
2022/12/23 08:33:39;;;;;;;161.80;42.38;;;;;;;8.47;100.00;100347.75;4974021;28;20031;-60
2022/12/23 08:36:06;;;;;;;145.10;39.38;;;;;;;8.45;100.00;100339.94;4977207;28;20030;-59
2022/12/23 08:38:33;;;;;;;138.40;38.83;;;;;;;8.05;100.00;100266.03;4995672;28;20080;-61
2022/12/23 08:40:58;;;;;;;127.40;37.92;;;;;;;8.23;100.00;100289.03;4994450;28;20521;-59
2022/12/23 08:43:23;;;;;;;129.15;37.35;;;;;;;8.32;100.00;100307.13;4995897;28;20034;-59
2022/12/23 08:45:49;;;;;;;108.82;35.80;;;;;;;8.49;100.00;100338.09;4978188;28;20030;-60
2022/12/23 08:48:14;;;;;;;90.22;32.47;;;;;;;8.15;100.00;100274.44;4995675;28;20034;-59
2022/12/23 08:50:41;;;;;;;103.93;32.10;;;;;;;8.12;100.00;100262.31;4995233;28;20054;-61
2022/12/23 08:53:07;;;;;;;100.60;32.83;;;;;;;8.50;100.00;100313.56;4996136;28;20045;-60
2022/12/23 08:55:40;;;;;;;107.63;32.25;;;;;;;8.05;100.00;100237.22;4996096;28;20034;-63
2022/12/23 08:58:05;;;;;;;104.82;33.50;;;;;;;8.20;100.00;100257.66;4977936;28;20041;-63
2022/12/23 09:00:31;;;;;;;99.40;31.67;;;;;;;8.49;100.00;100315.31;4977865;28;20141;-61
2022/12/23 09:02:56;;;;;;;95.95;31.65;;;;;;;8.54;100.00;100312.56;4995595;28;20378;-60
2022/12/23 09:05:21;;;;;;;88.97;28.65;;;;;;;8.53;100.00;100312.59;4995279;28;20030;-63
2022/12/23 09:07:47;;;;;;;64.95;26.05;;;;;;;8.29;100.00;100267.06;4995740;28;20030;-60
2022/12/23 09:10:12;;;;;;;85.80;26.60;;;;;;;8.65;100.00;100313.06;4993772;28;20038;-62
2022/12/23 09:12:37;;;;;;;77.72;25.48;;;;;;;8.28;100.00;100252.22;4994241;28;20093;-59
2022/12/23 09:15:03;;;;;;;68.38;24.27;;;;;;;8.68;100.00;100319.97;4994173;28;20065;-60
2022/12/23 09:17:29;;;;;;;63.63;24.30;;;;;;;8.25;100.00;100250.53;4994150;28;20030;-62
2022/12/23 09:19:54;;;;;;;54.30;21.38;;;;;;;8.70;100.00;100311.16;4994139;28;20043;-63
2022/12/23 09:22:19;;;;;;;67.85;21.95;;;;;;;8.62;100.00;100300.06;4992747;28;20070;-62
2022/12/23 09:24:45;;;;;;;61.40;21.17;;;;;;;8.71;100.00;100312.88;4993186;28;20077;-62
2022/12/23 09:27:11;;;;;;;69.78;23.27;;;;;;;8.70;100.00;100307.69;4993228;28;20058;-59
2022/12/23 09:29:36;;;;;;;58.65;20.60;;;;;;;8.38;100.00;100248.38;4993439;28;20038;-60
2022/12/23 09:32:01;;;;;;;54.28;20.33;;;;;;;8.70;100.00;100302.44;4993653;28;20050;-59
2022/12/23 09:34:27;;;;;;;56.00;20.33;;;;;;;8.57;100.00;100265.25;4993818;28;20042;-61
2022/12/23 09:36:52;;;;;;;60.17;20.80;;;;;;;8.62;100.00;100279.06;4992311;28;20089;-63
2022/12/23 09:39:17;;;;;;;56.40;20.10;;;;;;;8.64;100.00;100263.28;4993774;28;20148;-60
2022/12/23 09:41:52;;;;;;;56.67;21.05;;;;;;;8.66;100.00;100274.59;4993754;28;20034;-60
2022/12/23 09:44:34;;;;;;;50.38;20.17;;;;;;;8.65;100.00;100247.47;4993115;28;20026;-59
2022/12/23 09:47:03;;;;;;;57.67;20.05;;;;;;;8.51;100.00;100212.13;4992506;28;20121;-59
2022/12/23 09:49:29;;;;;;;53.35;19.42;;;;;;;8.71;100.00;100242.03;4993838;28;20030;-60
2022/12/23 09:52:00;;;;;;;55.20;19.55;;;;;;;8.61;100.00;100237.97;4993971;28;20374;-60
2022/12/23 09:54:40;;;;;;;65.70;20.25;;;;;;;8.70;100.00;100239.47;4993140;28;20393;-60
2022/12/23 09:57:22;;;;;;;78.93;21.60;;;;;;;8.36;100.00;100188.13;4993442;28;20551;-62
2022/12/23 10:00:13;;;;;;;79.93;21.98;;;;;;;8.71;100.00;100247.28;4993708;28;20034;-59
2022/12/23 10:02:38;;;;;;;75.00;22.38;;;;;;;8.71;100.00;100244.66;4992707;28;20062;-60
2022/12/23 10:05:03;;;;;;;81.95;23.17;;;;;;;8.76;100.00;100244.47;4993485;28;20077;-61
2022/12/23 10:07:36;;;;;;;87.05;25.27;;;;;;;8.76;100.00;100241.84;4993506;28;20140;-61
2022/12/23 10:10:17;;;;;;;93.75;26.67;;;;;;;8.62;100.00;100217.84;4991735;28;20125;-60
2022/12/23 10:12:46;;;;;;;104.28;27.80;;;;;;;8.78;100.00;100232.19;4991690;28;20030;-60
2022/12/23 10:15:22;;;;;;;100.82;29.00;;;;;;;8.71;100.00;100228.03;4975393;28;20026;-63
2022/12/23 10:17:51;;;;;;;100.43;28.30;;;;;;;8.37;100.00;100168.03;4990747;28;20066;-63
2022/12/23 10:20:25;;;;;;;107.93;29.08;;;;;;;8.75;100.00;100240.16;4991540;28;20046;-62
2022/12/23 10:22:50;;;;;;;120.75;30.50;;;;;;;8.62;100.00;100199.50;4973996;28;20035;-62
2022/12/23 10:25:19;;;;;;;106.22;30.08;;;;;;;8.75;100.00;100227.03;4975526;28;20474;-61
2022/12/23 10:27:44;;;;;;;112.93;30.23;;;;;;;8.40;100.00;100154.81;4992041;28;20042;-62
2022/12/23 10:30:16;;;;;;;128.45;30.90;;;;;;;8.41;100.00;100159.97;4992947;28;20089;-63
2022/12/23 10:33:01;;;;;;;133.18;32.60;;;;;;;8.77;100.00;100223.44;4992963;28;20432;-62
2022/12/23 10:36:08;;;;;;;144.32;33.75;;;;;;;8.78;100.00;100219.06;4993064;28;20030;-61
2022/12/23 10:39:32;;;;;;;139.07;33.65;;;;;;;8.76;100.00;100205.97;4989823;28;20129;-64
2022/12/23 10:42:06;;;;;;;142.95;34.13;;;;;;;8.78;100.00;100201.56;4938933;28;20469;-64
2022/12/23 10:44:54;;;;;;;146.23;36.05;;;;;;;8.81;100.00;100204.06;4991958;28;20026;-61
2022/12/23 10:47:23;;;;;;;165.75;37.58;;;;;;;8.85;100.00;100205.66;4975458;28;20028;-63
2022/12/23 10:50:28;;;;;;;196.23;41.10;;;;;;;8.83;100.00;100198.75;4992324;28;20115;-65
2022/12/23 10:52:55;;;;;;;190.70;39.38;;;;;;;8.82;100.00;100199.66;4966975;28;20122;-64
2022/12/23 10:55:27;;;;;;;200.40;42.17;;;;;;;8.63;100.00;100167.13;4991963;28;20050;-66
2022/12/23 10:58:05;;;;;;;184.45;42.83;;;;;;;8.80;100.00;100194.47;4990871;28;20038;-65
2022/12/23 11:00:31;;;;;;;167.63;41.20;;;;;;;8.81;100.00;100184.84;4990757;28;20038;-61
2022/12/23 11:03:18;;;;;;;147.85;42.00;;;;;;;8.76;100.00;100174.50;4991556;28;20100;-65
2022/12/23 11:05:44;;;;;;;197.50;42.97;;;;;;;8.78;100.00;100183.19;4990546;28;20030;-62
2022/12/23 11:08:10;;;;;;;159.98;43.70;;;;;;;8.79;100.00;100179.63;4992454;28;20042;-65
2022/12/23 11:10:35;;;;;;;175.50;42.70;;;;;;;8.73;100.00;100150.97;4974260;28;20048;-62
2022/12/23 11:13:00;;;;;;;163.00;44.95;;;;;;;8.44;100.00;100101.31;4991956;28;20042;-62
2022/12/23 11:15:33;;;;;;;172.35;48.10;;;;;;;8.79;100.00;100147.28;4992320;28;20467;-60
2022/12/23 11:18:01;;;;;;;136.40;43.67;;;;;;;8.77;100.00;100120.25;4990971;28;20073;-64
2022/12/23 11:20:26;;;;;;;136.98;44.25;;;;;;;8.75;100.00;100104.56;4992196;28;20080;-60
2022/12/23 11:22:54;;;;;;;114.38;42.35;;;;;;;8.77;100.00;100110.63;4991947;28;20394;-61
2022/12/23 11:25:28;;;;;;;133.77;44.13;;;;;;;8.77;100.00;100100.13;4974205;28;20042;-63
2022/12/23 11:27:59;;;;;;;136.05;44.58;;;;;;;8.71;100.00;100089.84;4991775;28;20497;-64
2022/12/23 11:30:24;;;;;;;125.10;42.97;;;;;;;8.73;100.00;100095.88;4991850;28;20041;-64
2022/12/23 11:32:50;;;;;;;134.60;41.75;;;;;;;8.71;100.00;100089.84;4991709;28;20116;-63
2022/12/23 11:35:33;;;;;;;118.70;42.13;;;;;;;8.70;100.00;100098.63;4991688;28;20062;-60
2022/12/23 11:38:00;;;;;;;125.15;41.70;;;;;;;8.71;100.00;100084.59;4990729;28;20089;-61
2022/12/23 11:40:36;;;;;;;125.20;42.85;;;;;;;8.24;100.00;99996.25;4974464;28;20034;-61
2022/12/23 11:43:04;;;;;;;122.20;41.58;;;;;;;8.62;100.00;100060.47;4974422;28;20129;-63
2022/12/23 11:45:33;;;;;;;125.18;42.55;;;;;;;8.22;100.00;99990.22;4973777;28;20462;-62